Time;durP1;ratioP1;P1;durP2;ratioP2;P2;SDS_P1;SDS_P2;PMS_P1;PMS_P2;Temp;Humidity;BMP_temperature;BMP_pressure;BME280_temperature;BME280_humidity;BME280_pressure;Samples;Min_cycle;Max_cycle;Signal;HPM_P1;HPM_P2
2022/03/28 00:01:11;;;;;;;36.00;12.07;;;;;;;11.35;42.51;95969.34;5069538;28;20033;-76
2022/03/28 00:03:36;;;;;;;24.77;13.32;;;;;;;11.16;43.04;95965.81;5070509;28;20056;-77
2022/03/28 00:06:03;;;;;;;24.95;12.27;;;;;;;11.04;42.59;95964.88;5050167;28;20077;-77
2022/03/28 00:08:28;;;;;;;19.75;11.60;;;;;;;10.99;43.18;95955.09;5052776;28;20504;-77
2022/03/28 00:10:54;;;;;;;16.27;11.52;;;;;;;10.76;43.36;95959.97;5035109;28;20182;-78
2022/03/28 00:13:20;;;;;;;26.70;13.35;;;;;;;10.41;44.12;95972.41;5034333;28;20028;-77
2022/03/28 00:15:45;;;;;;;27.67;12.52;;;;;;;10.34;44.41;95966.44;5051481;28;20036;-77
2022/03/28 00:18:11;;;;;;;28.30;12.23;;;;;;;10.30;44.06;95970.44;5055618;28;20020;-78
2022/03/28 00:20:37;;;;;;;25.55;12.85;;;;;;;10.32;44.52;95965.84;5053946;28;20024;-78
2022/03/28 00:23:03;;;;;;;41.20;15.68;;;;;;;10.31;45.00;95957.25;5018638;28;20036;-77
2022/03/28 00:25:29;;;;;;;63.40;23.88;;;;;;;10.25;45.11;95965.03;5050475;28;20037;-77
2022/03/28 00:27:54;;;;;;;31.65;14.65;;;;;;;10.26;44.08;95957.06;5018092;28;20039;-77
2022/03/28 00:30:20;;;;;;;20.17;12.40;;;;;;;10.21;45.57;95955.03;5017678;28;20573;-77
2022/03/28 00:32:45;;;;;;;19.15;11.75;;;;;;;10.11;45.58;95946.84;5051016;28;20033;-77
2022/03/28 00:35:10;;;;;;;42.88;18.95;;;;;;;10.03;45.88;95938.44;5066902;28;20028;-77
2022/03/28 00:37:38;;;;;;;22.77;13.45;;;;;;;9.95;46.00;95942.03;5033288;28;20424;-77
2022/03/28 00:40:05;;;;;;;66.43;28.00;;;;;;;9.88;46.67;95941.22;5050286;28;20024;-77
2022/03/28 00:42:31;;;;;;;110.10;41.53;;;;;;;9.82;46.60;95945.44;5034577;28;20041;-78
2022/03/28 00:44:56;;;;;;;271.70;109.95;;;;;;;9.80;46.15;95934.44;5049775;28;20082;-77
2022/03/28 00:47:22;;;;;;;146.18;57.53;;;;;;;9.80;46.56;95941.44;5068718;28;20420;-77
2022/03/28 00:49:47;;;;;;;58.38;24.08;;;;;;;9.72;46.39;95937.22;5067821;28;20041;-77
2022/03/28 00:52:12;;;;;;;31.48;15.52;;;;;;;9.72;47.03;95936.41;5069128;28;20025;-77
2022/03/28 00:54:38;;;;;;;30.15;15.35;;;;;;;9.73;46.93;95943.22;5050067;28;20040;-77
2022/03/28 00:57:04;;;;;;;30.35;15.43;;;;;;;9.73;46.47;95938.81;5033388;28;20424;-77
2022/03/28 00:59:32;;;;;;;39.30;14.57;;;;;;;9.74;47.09;95937.81;5033934;28;20039;-77
2022/03/28 01:01:58;;;;;;;28.60;14.40;;;;;;;9.70;47.53;95934.03;5067635;28;20068;-77
2022/03/28 01:04:24;;;;;;;29.20;15.07;;;;;;;9.72;46.95;95941.59;5050049;28;20040;-77
2022/03/28 01:06:49;;;;;;;27.40;15.25;;;;;;;9.70;47.38;95948.81;5033049;28;20029;-77
2022/03/28 01:09:15;;;;;;;36.08;16.58;;;;;;;9.72;46.95;95941.59;5050417;28;20059;-77
2022/03/28 01:11:42;;;;;;;28.55;15.43;;;;;;;9.73;47.03;95948.41;5033872;28;20035;-77
2022/03/28 01:14:07;;;;;;;28.95;12.18;;;;;;;9.73;46.83;95938.00;5049623;28;20464;-77
2022/03/28 01:19:17;;;;;;;27.10;14.45;;;;;;;9.80;46.51;95934.44;5071605;28;20036;-76
2022/03/28 01:21:43;;;;;;;25.83;14.73;;;;;;;9.79;45.49;95932.03;5053358;28;20392;-76
2022/03/28 01:24:08;;;;;;;34.75;13.70;;;;;;;9.77;46.19;95934.84;5071480;28;20051;-76
2022/03/28 01:26:34;;;;;;;69.45;25.05;;;;;;;9.80;46.00;95936.25;5020108;28;20033;-76
2022/03/28 01:29:00;;;;;;;46.13;19.98;;;;;;;9.79;45.62;95937.25;5036005;28;20547;-76
2022/03/28 01:31:25;;;;;;;64.30;28.80;;;;;;;9.80;46.37;95939.63;5052883;28;20036;-76
2022/03/28 01:34:03;;;;;;;47.80;16.83;;;;;;;9.80;46.29;95937.03;5060761;28;20032;-76
2022/03/28 01:36:32;;;;;;;71.80;27.10;;;;;;;9.72;46.33;95931.22;5070446;28;20040;-76
2022/03/28 01:38:57;;;;;;;115.82;46.22;;;;;;;9.68;46.18;95935.22;5071177;28;20044;-76
2022/03/28 01:41:22;;;;;;;145.07;52.38;;;;;;;9.63;46.29;95933.22;5071462;28;20511;-77
2022/03/28 01:43:48;;;;;;;76.70;30.05;;;;;;;9.61;46.13;95930.03;5071213;28;20043;-77
2022/03/28 01:46:14;;;;;;;70.53;29.73;;;;;;;9.54;46.41;95924.81;5053443;28;20036;-76
2022/03/28 01:48:39;;;;;;;39.55;20.05;;;;;;;9.50;46.50;95923.59;5052492;28;20082;-76
2022/03/28 01:51:04;;;;;;;113.85;48.28;;;;;;;9.38;46.46;95935.56;5069642;28;20431;-76
2022/03/28 01:53:30;;;;;;;151.85;62.63;;;;;;;9.33;46.58;95928.38;5053186;28;20081;-76
2022/03/28 01:55:55;;;;;;;50.85;23.63;;;;;;;9.27;46.68;95923.16;5051404;28;20024;-77
2022/03/28 01:58:47;;;;;;;96.30;36.20;;;;;;;9.18;47.81;95926.94;5071654;28;20438;-76
2022/03/28 02:01:13;;;;;;;56.93;25.57;;;;;;;9.13;46.76;95921.53;5054065;28;20045;-77
2022/03/28 02:03:38;;;;;;;148.40;60.30;;;;;;;9.14;47.38;95929.13;5070635;28;20487;-76
2022/03/28 02:06:05;;;;;;;51.65;23.58;;;;;;;9.07;47.80;95933.47;5070811;28;20032;-76
2022/03/28 02:08:34;;;;;;;45.30;23.38;;;;;;;9.02;48.04;95925.47;5070286;28;20075;-77
2022/03/28 02:11:02;;;;;;;61.05;26.63;;;;;;;9.03;48.15;95927.09;5052942;28;20086;-76
2022/03/28 02:13:28;;;;;;;56.22;22.55;;;;;;;8.98;48.06;95930.25;5044272;28;20466;-76
2022/03/28 02:15:53;;;;;;;85.63;33.28;;;;;;;8.90;48.79;95927.81;5051989;28;20495;-77
2022/03/28 02:18:19;;;;;;;65.50;28.60;;;;;;;8.92;48.02;95932.81;5036882;28;20047;-78
2022/03/28 02:20:44;;;;;;;27.73;14.18;;;;;;;8.78;48.01;95921.59;5036100;28;20432;-76
2022/03/28 02:23:10;;;;;;;30.80;14.15;;;;;;;8.72;48.33;95924.97;5036167;28;20041;-76
2022/03/28 02:25:37;;;;;;;91.10;36.58;;;;;;;8.71;48.41;95924.16;5070241;28;20044;-76
2022/03/28 02:28:03;;;;;;;123.07;51.40;;;;;;;8.61;48.67;95933.28;5052505;28;20120;-76
2022/03/28 02:30:30;;;;;;;129.88;56.78;;;;;;;8.59;49.25;95928.28;5034600;28;20036;-76
2022/03/28 02:32:56;;;;;;;125.68;52.50;;;;;;;8.50;49.56;95926.84;5052536;28;20032;-77
2022/03/28 02:35:22;;;;;;;139.88;60.40;;;;;;;8.57;48.68;95926.88;5034570;28;20411;-76
2022/03/28 02:37:48;;;;;;;129.05;55.40;;;;;;;8.47;48.93;95929.03;5069664;28;20045;-77
2022/03/28 02:40:13;;;;;;;116.90;50.13;;;;;;;8.46;48.88;95930.81;5036188;28;20028;-76
2022/03/28 02:42:39;;;;;;;176.90;73.47;;;;;;;8.41;48.95;95933.97;5052440;28;20086;-76
2022/03/28 02:45:05;;;;;;;111.72;48.28;;;;;;;8.35;49.02;95929.56;5052244;28;20025;-76
2022/03/28 02:47:30;;;;;;;122.38;53.80;;;;;;;8.27;49.79;95936.63;5059854;28;20046;-77
2022/03/28 02:49:56;;;;;;;92.05;42.45;;;;;;;8.25;49.57;95934.22;5052404;28;20044;-76
2022/03/28 02:52:22;;;;;;;91.07;45.58;;;;;;;8.21;49.69;95937.41;5070594;28;20024;-77
2022/03/28 02:54:48;;;;;;;102.22;48.13;;;;;;;8.10;50.20;95936.91;5052549;28;20037;-77
2022/03/28 02:57:13;;;;;;;111.95;47.38;;;;;;;8.09;50.06;95939.69;5035026;28;20138;-76
2022/03/28 02:59:39;;;;;;;110.18;51.35;;;;;;;8.01;50.27;95939.84;5069884;28;20530;-76
2022/03/28 03:02:04;;;;;;;91.95;41.83;;;;;;;8.01;50.46;95943.25;5051882;28;20074;-77
2022/03/28 03:04:31;;;;;;;38.53;20.20;;;;;;;8.05;50.39;95949.66;5069750;28;20039;-77
2022/03/28 03:06:57;;;;;;;60.13;24.05;;;;;;;7.99;50.20;95929.69;5069359;28;20043;-77
2022/03/28 03:09:22;;;;;;;145.73;55.42;;;;;;;7.97;50.30;95944.63;5051618;28;20037;-77
2022/03/28 03:11:47;;;;;;;161.25;65.82;;;;;;;7.94;50.55;95946.75;5054591;28;20029;-77
2022/03/28 03:14:13;;;;;;;125.47;56.28;;;;;;;7.88;50.52;95947.50;5035513;28;20020;-77
2022/03/28 03:16:40;;;;;;;105.45;52.75;;;;;;;7.81;51.12;95945.69;5068964;28;20021;-77
2022/03/28 03:19:06;;;;;;;85.47;46.67;;;;;;;7.80;51.07;95941.47;5070075;28;20039;-77
2022/03/28 03:21:43;;;;;;;81.50;40.20;;;;;;;7.85;50.61;95953.06;5072445;28;20174;-77
2022/03/28 03:24:08;;;;;;;72.50;36.92;;;;;;;7.83;50.89;95951.47;5056266;28;20070;-77
2022/03/28 03:26:37;;;;;;;75.75;36.92;;;;;;;7.77;50.71;95947.00;5071057;28;20021;-77
2022/03/28 03:29:03;;;;;;;74.82;32.33;;;;;;;7.74;51.10;95947.41;5069970;28;20032;-76
2022/03/28 03:31:28;;;;;;;83.60;41.40;;;;;;;7.69;50.71;95954.94;5069805;28;20033;-77
2022/03/28 03:33:54;;;;;;;90.75;44.50;;;;;;;7.61;51.37;95957.63;5069625;28;20170;-76
2022/03/28 03:36:19;;;;;;;61.20;36.38;;;;;;;7.64;51.40;95954.66;5070260;28;20048;-77
2022/03/28 03:38:45;;;;;;;77.00;40.38;;;;;;;7.62;51.46;95964.41;5068071;28;20032;-76
2022/03/28 03:41:10;;;;;;;91.43;43.72;;;;;;;7.62;51.27;95961.81;5066791;28;20036;-76
2022/03/28 03:43:36;;;;;;;86.82;43.88;;;;;;;7.67;51.21;95958.69;5051643;28;20024;-76
2022/03/28 03:46:01;;;;;;;93.88;41.03;;;;;;;7.64;51.35;95957.25;5068987;28;20067;-77
2022/03/28 03:48:27;;;;;;;91.20;42.75;;;;;;;7.62;51.38;95954.03;5049249;28;20495;-77
2022/03/28 03:50:53;;;;;;;100.35;43.70;;;;;;;7.65;50.99;95953.69;5069004;28;20029;-76
2022/03/28 03:53:19;;;;;;;118.20;54.30;;;;;;;7.61;51.14;95957.63;5033199;28;20097;-76
2022/03/28 03:55:45;;;;;;;120.53;66.70;;;;;;;7.57;51.30;95966.75;5069133;28;20068;-75
2022/03/28 03:58:11;;;;;;;134.23;68.18;;;;;;;7.46;51.30;95964.63;5050803;28;20103;-75
2022/03/28 04:00:36;;;;;;;96.07;51.88;;;;;;;7.50;51.45;95971.06;5067270;28;20443;-75
2022/03/28 04:03:03;;;;;;;97.55;49.90;;;;;;;7.48;51.96;95970.44;5050655;28;20037;-76
2022/03/28 04:05:29;;;;;;;104.63;46.38;;;;;;;7.47;51.89;95961.06;5067396;28;20044;-78
2022/03/28 04:07:55;;;;;;;101.97;43.28;;;;;;;7.50;51.69;95960.72;5069082;28;20040;-77
2022/03/28 04:10:22;;;;;;;96.85;40.88;;;;;;;7.55;51.94;95957.56;5034626;28;20031;-77
2022/03/28 04:12:47;;;;;;;109.65;50.95;;;;;;;7.56;51.73;95959.16;5050840;28;20419;-77
2022/03/28 04:15:12;;;;;;;149.68;62.30;;;;;;;7.52;51.82;95967.31;5068729;28;20037;-77
2022/03/28 04:17:39;;;;;;;217.60;89.15;;;;;;;7.57;52.14;95971.13;5068947;28;20044;-77
2022/03/28 04:20:05;;;;;;;173.30;65.80;;;;;;;7.57;52.17;95963.38;5018346;28;20055;-77
2022/03/28 04:22:31;;;;;;;137.15;56.88;;;;;;;7.56;51.97;95969.53;5069324;28;20068;-77
2022/03/28 04:24:56;;;;;;;147.68;55.63;;;;;;;7.60;52.01;95966.38;5050952;28;20036;-77
2022/03/28 04:27:22;;;;;;;128.82;49.28;;;;;;;7.66;51.96;95970.03;5068803;28;20112;-76
2022/03/28 04:29:47;;;;;;;117.82;45.05;;;;;;;7.74;52.06;95970.69;5051564;28;20033;-78
2022/03/28 04:32:13;;;;;;;143.52;45.90;;;;;;;7.79;51.51;95968.34;5052962;28;20036;-78
2022/03/28 04:34:38;;;;;;;78.35;32.90;;;;;;;7.83;51.83;95967.00;5069945;28;20039;-79
2022/03/28 04:37:04;;;;;;;58.83;27.17;;;;;;;7.91;51.91;95966.06;5054851;28;20043;-79
2022/03/28 04:39:30;;;;;;;61.45;26.00;;;;;;;8.10;51.25;95972.38;5073665;28;20040;-79
2022/03/28 04:41:55;;;;;;;70.35;28.48;;;;;;;8.37;50.63;95971.63;5054282;28;20060;-78
2022/03/28 04:44:20;;;;;;;73.80;28.77;;;;;;;8.79;50.50;95972.50;5070117;28;20028;-79
2022/03/28 04:46:46;;;;;;;112.45;50.70;;;;;;;9.27;49.01;95972.47;5071506;28;20036;-79
2022/03/28 04:49:14;;;;;;;79.50;37.78;;;;;;;9.82;47.49;95981.00;5075244;28;20024;-80
2022/03/28 04:51:40;;;;;;;108.78;48.78;;;;;;;10.55;44.87;95979.19;5071128;28;20029;-78
2022/03/28 04:54:06;;;;;;;88.03;42.90;;;;;;;11.36;43.17;95974.34;5039697;28;20085;-79
2022/03/28 04:56:34;;;;;;;71.80;29.75;;;;;;;11.99;41.30;95971.78;5055496;28;20033;-79
2022/03/28 04:58:59;;;;;;;63.22;26.95;;;;;;;12.92;39.48;95970.97;5074132;28;20059;-79
2022/03/28 05:01:25;;;;;;;49.10;22.10;;;;;;;14.10;36.63;95963.38;5075341;28;20024;-78
2022/03/28 05:03:51;;;;;;;71.35;27.83;;;;;;;14.95;34.49;95959.53;5058372;28;20032;-78
2022/03/28 05:06:16;;;;;;;45.22;21.05;;;;;;;15.74;32.68;95962.38;5055117;28;20040;-78
2022/03/28 05:08:42;;;;;;;41.65;20.50;;;;;;;16.09;31.98;95956.94;5054970;28;20040;-78
2022/03/28 05:11:07;;;;;;;41.95;19.38;;;;;;;16.94;30.04;95955.84;5058095;28;20036;-78
2022/03/28 05:13:33;;;;;;;46.35;20.75;;;;;;;17.91;28.63;95960.38;5080576;28;20032;-80
2022/03/28 05:15:58;;;;;;;39.80;19.55;;;;;;;18.32;28.39;95969.38;5074305;28;20046;-79
2022/03/28 05:18:24;;;;;;;46.42;18.65;;;;;;;18.95;26.99;95966.91;5057419;28;20765;-80
2022/03/28 05:20:50;;;;;;;39.95;17.33;;;;;;;19.78;26.05;95960.63;5060711;28;20028;-79
2022/03/28 05:23:16;;;;;;;44.63;19.15;;;;;;;20.65;25.05;95960.66;5043249;28;20037;-78
2022/03/28 05:25:41;;;;;;;43.97;18.17;;;;;;;21.42;24.19;95958.59;5067418;28;20085;-78
2022/03/28 05:28:07;;;;;;;38.92;18.95;;;;;;;22.22;23.18;95963.72;5043345;28;20108;-78
2022/03/28 05:30:32;;;;;;;51.47;18.27;;;;;;;22.79;22.13;95967.47;5067742;28;20028;-77
2022/03/28 05:32:58;;;;;;;48.67;19.10;;;;;;;23.10;21.79;95960.75;5078419;28;20025;-79
2022/03/28 05:35:23;;;;;;;43.20;17.95;;;;;;;22.71;22.37;95953.72;5056710;28;20044;-79
2022/03/28 05:37:49;;;;;;;40.92;18.35;;;;;;;22.65;22.97;95965.47;5076320;28;20040;-79
2022/03/28 05:40:15;;;;;;;48.13;19.70;;;;;;;22.40;22.75;95963.03;5056193;28;20113;-79
2022/03/28 05:42:40;;;;;;;39.25;20.60;;;;;;;21.83;22.57;95956.53;5056638;28;20079;-79
2022/03/28 05:45:08;;;;;;;42.63;20.52;;;;;;;21.40;23.08;95961.53;5056758;28;20463;-78
2022/03/28 05:47:34;;;;;;;52.22;22.73;;;;;;;21.14;24.18;95957.38;5074344;28;20035;-78
2022/03/28 05:49:59;;;;;;;51.90;23.05;;;;;;;20.96;23.72;95967.47;5073504;28;20032;-78
2022/03/28 05:52:25;;;;;;;58.28;23.65;;;;;;;20.97;23.90;95979.63;5056177;28;20496;-78
2022/03/28 05:54:50;;;;;;;52.63;22.73;;;;;;;20.81;24.83;95978.09;5032992;28;20037;-78
2022/03/28 05:57:16;;;;;;;55.95;20.80;;;;;;;20.77;25.03;95974.41;5038572;28;20028;-77
2022/03/28 05:59:41;;;;;;;50.83;21.20;;;;;;;20.20;25.52;95972.03;5053952;28;20037;-78
2022/03/28 06:02:07;;;;;;;53.05;26.25;;;;;;;20.10;25.97;95978.09;5056609;28;20024;-78
2022/03/28 06:04:34;;;;;;;68.93;29.00;;;;;;;19.89;26.45;95968.59;5038472;28;20033;-82
2022/03/28 06:06:59;;;;;;;59.95;22.92;;;;;;;19.51;26.79;95970.56;5067917;28;20063;-81
2022/03/28 06:09:28;;;;;;;52.33;21.02;;;;;;;19.43;26.77;95965.81;5085213;28;20029;-82
2022/03/28 06:11:53;;;;;;;60.88;23.77;;;;;;;19.29;26.99;95964.69;5067929;28;20059;-80
2022/03/28 06:14:19;;;;;;;55.88;23.60;;;;;;;19.22;27.19;95979.97;5086725;28;20036;-81
2022/03/28 06:16:44;;;;;;;60.17;22.00;;;;;;;19.18;27.63;95983.09;5051663;28;20040;-80
2022/03/28 06:19:10;;;;;;;51.25;23.23;;;;;;;19.19;26.67;95976.78;5055142;28;20241;-80
2022/03/28 06:21:35;;;;;;;51.28;21.00;;;;;;;19.23;27.38;95971.00;5079214;28;20407;-81
2022/03/28 06:24:00;;;;;;;55.53;21.25;;;;;;;19.28;26.85;95968.38;5060904;28;20024;-82
2022/03/28 06:26:26;;;;;;;53.10;21.10;;;;;;;19.36;26.83;95967.88;5039357;28;20028;-82
2022/03/28 06:28:52;;;;;;;49.75;20.70;;;;;;;19.39;26.60;95970.00;5071861;28;20115;-82
2022/03/28 06:31:17;;;;;;;39.47;20.13;;;;;;;19.37;26.67;95977.41;5032526;28;20043;-82
2022/03/28 06:33:43;;;;;;;36.80;16.83;;;;;;;19.35;26.84;95974.19;5056669;28;20045;-81
2022/03/28 06:36:10;;;;;;;26.52;14.52;;;;;;;19.41;26.87;95967.91;5037814;28;20075;-83
2022/03/28 06:38:36;;;;;;;26.30;14.35;;;;;;;19.43;27.17;95965.81;5044551;28;20029;-82
2022/03/28 06:41:02;;;;;;;35.78;15.57;;;;;;;19.52;26.90;95972.16;5039742;28;20040;-82
2022/03/28 06:43:28;;;;;;;42.97;17.02;;;;;;;19.47;26.63;95966.88;5047250;28;20054;-82
2022/03/28 06:45:53;;;;;;;28.10;17.75;;;;;;;19.41;26.68;95970.53;5023151;28;20044;-82
2022/03/28 06:48:19;;;;;;;38.88;19.25;;;;;;;19.38;26.61;95978.97;5056069;28;20138;-81
2022/03/28 06:50:45;;;;;;;43.25;18.20;;;;;;;19.34;26.67;95977.88;5036812;28;20144;-82
2022/03/28 06:53:10;;;;;;;46.20;19.25;;;;;;;19.17;27.03;95986.78;5055291;28;20064;-86
2022/03/28 06:55:36;;;;;;;50.05;20.65;;;;;;;19.04;26.74;95973.31;5039663;28;20032;-82
2022/03/28 06:58:02;;;;;;;56.15;20.48;;;;;;;19.00;27.17;95969.56;5071771;28;20044;-81
2022/03/28 07:00:27;;;;;;;49.08;20.65;;;;;;;19.00;27.05;95969.56;5063615;28;20035;-81
2022/03/28 07:02:53;;;;;;;46.88;19.52;;;;;;;18.94;27.32;95967.97;5022082;28;20040;-80
2022/03/28 07:05:18;;;;;;;46.63;19.02;;;;;;;18.97;27.13;95973.50;5020030;28;20033;-81
2022/03/28 07:07:47;;;;;;;47.97;20.70;;;;;;;18.98;27.52;95975.09;5055652;28;20349;-81
2022/03/28 07:10:13;;;;;;;45.17;19.55;;;;;;;18.95;27.48;95974.81;5073822;28;20070;-80
2022/03/28 07:12:39;;;;;;;34.92;17.27;;;;;;;18.80;27.46;95978.16;5071593;28;20037;-80
2022/03/28 07:15:05;;;;;;;33.22;17.90;;;;;;;18.82;27.64;95982.13;5039445;28;20029;-79
2022/03/28 07:17:33;;;;;;;35.72;15.77;;;;;;;18.92;28.04;95984.03;5049382;28;20024;-81
2022/03/28 07:19:58;;;;;;;28.02;16.67;;;;;;;18.96;27.36;95976.41;5078041;28;20055;-81
2022/03/28 07:22:24;;;;;;;42.90;17.13;;;;;;;18.96;27.76;95969.28;5037933;28;20496;-81
2022/03/28 07:24:50;;;;;;;34.15;16.58;;;;;;;19.12;27.25;95975.44;5081264;28;20113;-79
2022/03/28 07:27:17;;;;;;;27.65;16.17;;;;;;;19.13;27.55;95977.03;5042485;28;20036;-82
2022/03/28 07:29:43;;;;;;;31.85;16.15;;;;;;;19.15;27.54;95974.91;5052871;28;20119;-81
2022/03/28 07:32:09;;;;;;;46.15;15.43;;;;;;;19.15;28.04;95986.25;5038287;28;20054;-81
2022/03/28 07:34:35;;;;;;;28.20;15.23;;;;;;;19.24;27.53;95975.22;5055739;28;20021;-81
2022/03/28 07:37:02;;;;;;;35.70;14.45;;;;;;;19.24;27.86;95969.94;5054083;28;20077;-81
2022/03/28 07:39:28;;;;;;;26.40;13.93;;;;;;;19.27;28.13;95974.72;5075999;28;20035;-81
2022/03/28 07:41:54;;;;;;;33.15;15.95;;;;;;;19.36;27.88;95973.16;5041024;28;20115;-81
2022/03/28 07:44:20;;;;;;;28.42;15.38;;;;;;;19.42;27.56;95974.78;5066920;28;20025;-81
2022/03/28 07:46:45;;;;;;;31.98;14.25;;;;;;;19.46;27.81;95976.63;5048488;28;20036;-81
2022/03/28 07:49:16;;;;;;;31.30;14.85;;;;;;;19.50;27.61;95966.34;5077190;28;20090;-81
2022/03/28 07:51:42;;;;;;;27.45;13.60;;;;;;;19.34;27.66;95976.03;5023245;28;20488;-81
2022/03/28 07:54:07;;;;;;;28.63;14.50;;;;;;;19.35;27.65;95969.72;5038793;28;20032;-82
2022/03/28 07:56:33;;;;;;;31.52;14.55;;;;;;;19.34;27.84;95968.13;5057213;28;20020;-84
2022/03/28 07:58:59;;;;;;;23.38;13.13;;;;;;;19.28;27.78;95968.38;5049509;28;20465;-81
2022/03/28 08:01:24;;;;;;;22.77;12.50;;;;;;;19.25;28.74;95969.69;5034165;28;20028;-77
2022/03/28 08:03:50;;;;;;;26.10;14.18;;;;;;;19.10;28.14;95959.88;5072090;28;20025;-77
2022/03/28 08:06:15;;;;;;;24.80;14.40;;;;;;;19.20;27.89;95951.22;5069026;28;20032;-77
2022/03/28 08:08:41;;;;;;;22.75;13.80;;;;;;;19.23;27.84;95955.19;5021235;28;20068;-77
2022/03/28 08:11:07;;;;;;;32.20;14.30;;;;;;;19.22;27.96;95949.13;5072631;28;20032;-77
2022/03/28 08:13:34;;;;;;;25.35;13.07;;;;;;;19.29;27.98;95959.41;5070720;28;20107;-77
2022/03/28 08:15:59;;;;;;;26.88;12.95;;;;;;;19.30;27.82;95945.97;5069366;28;20036;-77
2022/03/28 08:18:26;;;;;;;28.77;13.85;;;;;;;19.38;28.12;95947.31;5051548;28;20464;-77
2022/03/28 08:20:52;;;;;;;30.45;14.60;;;;;;;19.28;27.93;95947.28;5050874;28;20020;-78
2022/03/28 08:23:20;;;;;;;31.30;14.27;;;;;;;19.26;28.07;95939.63;5017352;28;20044;-77
2022/03/28 08:25:49;;;;;;;33.20;14.93;;;;;;;19.33;27.91;95936.75;5048305;28;20127;-77
2022/03/28 08:28:15;;;;;;;31.98;13.88;;;;;;;19.37;27.95;95924.66;5069138;28;20024;-77
2022/03/28 08:30:40;;;;;;;31.65;13.32;;;;;;;19.40;27.97;95921.47;5053095;28;20029;-77
2022/03/28 08:33:06;;;;;;;26.33;13.43;;;;;;;19.34;28.30;95917.22;5053213;28;20066;-78
2022/03/28 08:35:31;;;;;;;41.88;15.25;;;;;;;19.29;28.24;95917.22;5036282;28;20044;-77
2022/03/28 08:37:57;;;;;;;29.80;14.55;;;;;;;19.29;28.45;95918.00;5054203;28;20082;-77
2022/03/28 08:40:23;;;;;;;27.90;15.48;;;;;;;19.29;28.23;95925.94;5054168;28;20063;-77
2022/03/28 08:42:49;;;;;;;33.25;15.23;;;;;;;19.30;28.31;95916.16;5070605;28;20032;-77
2022/03/28 08:45:15;;;;;;;28.75;15.45;;;;;;;19.34;28.54;95915.38;5062225;28;20029;-77
2022/03/28 08:47:45;;;;;;;24.33;14.52;;;;;;;19.28;28.31;95908.50;5037219;28;20032;-78
2022/03/28 08:50:12;;;;;;;30.30;15.65;;;;;;;19.10;28.35;95907.16;5045990;28;20074;-77
2022/03/28 08:52:40;;;;;;;30.10;15.27;;;;;;;19.07;28.69;95899.75;5045704;28;20116;-77
2022/03/28 08:55:06;;;;;;;45.85;16.73;;;;;;;19.14;28.58;95889.75;5054294;28;20483;-77
2022/03/28 08:57:32;;;;;;;38.13;16.92;;;;;;;19.25;28.23;95887.16;5053394;28;20029;-77
2022/03/28 08:59:58;;;;;;;47.78;16.55;;;;;;;19.09;28.40;95887.09;5071134;28;20086;-77
2022/03/28 09:02:42;;;;;;;30.75;15.88;;;;;;;19.16;28.71;95882.38;5053884;28;20060;-78
2022/03/28 09:05:15;;;;;;;33.95;15.63;;;;;;;19.19;28.47;95873.13;5071693;28;20055;-77
2022/03/28 09:07:41;;;;;;;30.30;16.02;;;;;;;19.11;28.60;95873.66;5052445;28;20037;-77
2022/03/28 09:10:17;;;;;;;35.13;15.82;;;;;;;18.74;29.50;95881.69;5020915;28;20024;-77
2022/03/28 09:13:01;;;;;;;35.83;15.52;;;;;;;18.61;29.59;95875.00;5037444;28;20056;-78
2022/03/28 09:15:43;;;;;;;33.75;16.58;;;;;;;18.56;29.52;95872.38;5073544;28;20060;-77
2022/03/28 09:18:18;;;;;;;50.47;16.50;;;;;;;18.49;29.93;95866.50;5052542;28;20036;-77
2022/03/28 09:20:47;;;;;;;34.50;15.68;;;;;;;18.56;29.73;95861.81;5038849;28;20059;-77
2022/03/28 09:23:45;;;;;;;41.97;16.20;;;;;;;18.42;29.98;95860.69;5053551;28;20036;-77
2022/03/28 09:26:20;;;;;;;38.03;15.60;;;;;;;18.33;29.92;95855.09;5019942;28;20052;-78
2022/03/28 09:28:53;;;;;;;41.97;15.20;;;;;;;18.28;30.41;95844.56;5053316;28;20033;-77
2022/03/28 09:31:18;;;;;;;39.95;15.75;;;;;;;18.38;30.07;95851.69;5071186;28;20036;-77
2022/03/28 09:33:51;;;;;;;39.67;16.15;;;;;;;18.46;29.89;95848.59;5071324;28;20043;-77
2022/03/28 09:36:16;;;;;;;29.60;16.20;;;;;;;18.59;29.38;95841.03;5044866;28;20036;-77
2022/03/28 09:38:55;;;;;;;37.33;16.00;;;;;;;18.80;29.36;95835.88;5069840;28;20660;-77
2022/03/28 09:41:23;;;;;;;30.13;15.88;;;;;;;18.95;29.26;95822.75;5036127;28;20039;-78
2022/03/28 09:43:53;;;;;;;25.63;15.57;;;;;;;19.07;28.88;95827.78;5071463;28;20094;-77
2022/03/28 09:46:27;;;;;;;30.40;16.17;;;;;;;19.17;28.83;95817.25;5036482;28;20078;-77
2022/03/28 09:48:53;;;;;;;39.00;15.35;;;;;;;19.23;29.13;95807.50;5052810;28;20036;-78
2022/03/28 09:51:18;;;;;;;30.98;15.60;;;;;;;19.02;29.01;95804.81;5053121;28;20039;-78
2022/03/28 09:53:44;;;;;;;36.30;16.00;;;;;;;19.05;28.75;95809.59;5035728;28;20024;-77
2022/03/28 09:56:10;;;;;;;37.97;17.08;;;;;;;18.99;29.05;95801.91;5036492;28;20381;-76
2022/03/28 09:58:46;;;;;;;36.15;16.27;;;;;;;19.14;28.74;95802.75;5052921;28;20048;-76
2022/03/28 10:01:18;;;;;;;34.67;15.50;;;;;;;19.19;28.59;95786.91;5053741;28;20036;-77
2022/03/28 10:03:55;;;;;;;33.42;15.57;;;;;;;19.35;28.87;95794.84;5056557;28;20028;-81
2022/03/28 10:06:20;;;;;;;33.78;16.52;;;;;;;19.48;28.36;95783.78;5041244;28;20044;-77
2022/03/28 10:08:51;;;;;;;34.30;15.10;;;;;;;19.61;27.95;95777.22;5070235;28;20036;-76
2022/03/28 10:11:16;;;;;;;45.25;16.60;;;;;;;19.51;28.27;95780.63;5052367;28;20028;-77
2022/03/28 10:13:42;;;;;;;30.65;15.70;;;;;;;19.52;28.11;95774.28;5052041;28;20081;-77
2022/03/28 10:16:07;;;;;;;30.13;15.70;;;;;;;19.47;28.36;95767.16;5051031;28;20384;-77
2022/03/28 10:18:34;;;;;;;40.28;15.90;;;;;;;19.50;28.42;95760.56;5051726;28;20087;-77
2022/03/28 10:21:07;;;;;;;35.80;15.70;;;;;;;19.28;28.98;95752.13;5053559;28;20033;-76
2022/03/28 10:23:41;;;;;;;34.42;16.55;;;;;;;19.19;28.92;95749.22;5035525;28;20038;-76
2022/03/28 10:26:08;;;;;;;36.03;15.25;;;;;;;19.13;28.97;95740.53;5036085;28;20047;-77
2022/03/28 10:28:34;;;;;;;43.83;15.93;;;;;;;19.31;28.82;95741.06;5035076;28;20487;-77
2022/03/28 10:31:13;;;;;;;33.92;15.85;;;;;;;19.33;28.33;95736.31;5071284;28;20058;-77
2022/03/28 10:33:46;;;;;;;37.85;16.02;;;;;;;19.43;28.34;95733.66;5070697;28;20393;-77
2022/03/28 10:36:31;;;;;;;31.98;15.77;;;;;;;19.57;28.07;95723.41;5071213;28;20086;-77
2022/03/28 10:39:31;;;;;;;34.63;15.27;;;;;;;19.76;27.92;95722.59;5073642;28;20040;-77
2022/03/28 10:42:13;;;;;;;38.22;15.63;;;;;;;19.85;27.69;95706.19;5054923;28;20033;-78
2022/03/28 10:44:44;;;;;;;36.80;15.05;;;;;;;20.00;27.54;95706.16;5051801;28;20036;-77
2022/03/28 10:47:09;;;;;;;26.05;15.05;;;;;;;19.94;27.81;95701.94;5068285;28;20127;-77
2022/03/28 10:49:35;;;;;;;27.52;14.85;;;;;;;19.89;27.64;95696.69;5068608;28;20033;-77
2022/03/28 10:52:00;;;;;;;29.80;15.90;;;;;;;19.90;27.79;95696.44;5068449;28;20032;-76
2022/03/28 10:54:35;;;;;;;38.28;16.10;;;;;;;19.99;27.69;95688.72;5051235;28;20147;-76
2022/03/28 10:57:04;;;;;;;28.67;15.77;;;;;;;20.11;27.34;95683.94;5054390;28;20043;-76
2022/03/28 10:59:30;;;;;;;24.83;14.52;;;;;;;20.18;27.28;95687.09;5067866;28;20036;-76
2022/03/28 11:01:56;;;;;;;38.55;15.05;;;;;;;20.33;27.02;95678.28;5050856;28;20029;-77
2022/03/28 11:04:23;;;;;;;43.58;16.80;;;;;;;20.46;26.83;95682.22;5069387;28;20078;-76
2022/03/28 11:07:04;;;;;;;36.85;15.88;;;;;;;20.58;26.65;95674.75;5052274;28;20135;-76
2022/03/28 11:09:45;;;;;;;29.85;15.88;;;;;;;20.71;26.23;95668.88;5035089;28;20136;-77
2022/03/28 11:12:11;;;;;;;36.03;16.17;;;;;;;20.80;25.98;95674.34;5070339;28;20029;-76
2022/03/28 11:14:53;;;;;;;38.47;16.15;;;;;;;20.90;25.96;95661.06;5069171;28;20025;-77
2022/03/28 11:17:32;;;;;;;26.50;16.50;;;;;;;21.05;25.57;95662.81;5051096;28;20032;-77
2022/03/28 11:20:11;;;;;;;53.35;16.63;;;;;;;21.15;25.29;95663.53;5069686;28;20124;-77
2022/03/28 11:22:56;;;;;;;36.28;16.60;;;;;;;21.22;25.28;95663.19;5049905;28;20439;-77